createdAt,value
2022-10-11T05:03:10.158Z,12.60
2022-10-11T05:08:13.919Z,12.60
2022-10-11T05:13:17.486Z,12.60
2022-10-11T05:18:22.802Z,12.50
2022-10-11T05:23:26.584Z,12.50
2022-10-11T05:28:30.507Z,12.50
2022-10-11T05:33:35.939Z,12.40
2022-10-11T05:38:40.332Z,12.40
2022-10-11T05:43:44.529Z,12.40
2022-10-11T05:48:49.521Z,12.30
2022-10-11T05:53:53.109Z,12.20
2022-10-11T05:59:02.077Z,12.20
2022-10-11T06:04:08.423Z,12.20
2022-10-11T06:09:12.184Z,12.20
2022-10-11T06:14:16.026Z,12.10
2022-10-11T06:19:21.048Z,12.20
2022-10-11T06:24:24.730Z,12.20
2022-10-11T06:29:28.349Z,12.10
2022-10-11T06:34:33.350Z,12.10
2022-10-11T06:39:36.968Z,12.10
2022-10-11T06:44:40.665Z,12.20
2022-10-11T06:49:45.661Z,12.20
2022-10-11T06:54:49.376Z,12.20
2022-10-11T06:59:52.959Z,12.20
2022-10-11T07:04:57.958Z,12.20
2022-10-11T07:10:01.582Z,12.20
2022-10-11T07:15:05.874Z,12.30
2022-10-11T07:20:12.611Z,12.40
2022-10-11T07:25:16.264Z,12.50
2022-10-11T07:30:20.029Z,12.60
2022-10-11T07:35:25.115Z,12.80
2022-10-11T07:40:28.824Z,13.00
2022-10-11T07:45:32.459Z,13.20
2022-10-11T07:50:37.462Z,13.40
2022-10-11T07:55:41.138Z,13.60
2022-10-11T08:00:45.078Z,13.80
2022-10-11T08:05:52.188Z,13.90
2022-10-11T08:10:55.863Z,14.10
2022-10-11T08:15:59.718Z,14.20
2022-10-11T08:21:09.076Z,14.30
2022-10-11T08:26:13.115Z,14.40
2022-10-11T08:31:17.687Z,14.60
2022-10-11T08:36:22.480Z,14.60
2022-10-11T08:41:30.744Z,14.80
2022-10-11T08:46:38.004Z,15.00
2022-10-11T08:51:46.310Z,15.20
2022-10-11T08:56:50.625Z,15.50
2022-10-11T09:02:00.522Z,15.90
2022-10-11T09:07:12.142Z,16.40
2022-10-11T09:12:29.538Z,17.20
2022-10-11T09:17:48.562Z,17.90
2022-10-11T09:23:00.869Z,18.70
2022-10-11T09:28:18.396Z,19.50
2022-10-11T09:33:30.507Z,20.20
2022-10-11T09:38:44.279Z,20.60
2022-10-11T09:43:50.782Z,21.10
2022-10-11T09:48:57.287Z,21.80
2022-10-11T09:54:04.248Z,22.40
2022-10-11T09:59:27.206Z,22.80
2022-10-11T10:04:30.971Z,23.40
2022-10-11T10:09:36.261Z,23.60
2022-10-11T10:14:42.143Z,23.90
2022-10-11T10:19:51.818Z,24.40
2022-10-11T10:24:59.148Z,25.00
2022-10-11T10:30:16.077Z,25.50
2022-10-11T10:35:30.832Z,25.90
2022-10-11T10:40:38.823Z,26.40
2022-10-11T10:46:18.488Z,26.80
2022-10-11T10:51:32.533Z,27.20
2022-10-11T10:56:46.255Z,27.50
2022-10-11T11:02:16.023Z,27.70
2022-10-11T11:07:31.654Z,28.00
2022-10-11T11:12:46.217Z,28.50
2022-10-11T11:18:04.145Z,28.60
2022-10-11T11:23:20.269Z,28.50
2022-10-11T11:28:37.485Z,28.70
2022-10-11T11:33:51.395Z,28.60
2022-10-11T11:38:59.381Z,29.10
2022-10-11T11:44:08.062Z,29.20
2022-10-11T11:49:18.775Z,29.40
2022-10-11T11:54:33.770Z,29.40
2022-10-11T11:59:46.834Z,29.40
2022-10-11T12:04:51.574Z,29.10
2022-10-11T12:10:16.364Z,28.90
2022-10-11T12:15:26.184Z,29.00
2022-10-11T12:20:31.582Z,29.10
2022-10-11T12:25:44.183Z,29.20
2022-10-11T12:31:05.837Z,29.40
2022-10-11T12:36:39.898Z,29.30
2022-10-11T12:42:29.743Z,29.30
2022-10-11T12:47:43.288Z,29.70
2022-10-11T12:52:58.535Z,30.20
2022-10-11T12:58:28.062Z,30.20
2022-10-11T13:03:38.163Z,30.50
2022-10-11T13:08:49.269Z,30.60
2022-10-11T13:13:58.090Z,30.70
2022-10-11T13:19:08.023Z,30.50
2022-10-11T13:24:21.808Z,30.30
2022-10-11T13:29:33.801Z,30.10
2022-10-11T13:34:42.493Z,30.00
2022-10-11T13:39:48.962Z,29.80
2022-10-11T13:44:53.239Z,29.80
2022-10-11T13:50:11.168Z,30.00
2022-10-11T13:55:24.618Z,30.00
2022-10-11T14:00:35.191Z,29.60
2022-10-11T14:05:42.258Z,29.40
2022-10-11T14:10:47.554Z,29.30
2022-10-11T14:16:01.914Z,28.80
2022-10-11T14:21:30.840Z,28.80
2022-10-11T14:26:37.988Z,28.90
2022-10-11T14:31:42.967Z,28.90
2022-10-11T14:36:48.570Z,28.80
2022-10-11T14:41:53.487Z,28.70
2022-10-11T14:46:57.228Z,28.60
2022-10-11T14:52:04.021Z,28.40
2022-10-11T14:57:08.367Z,28.00
2022-10-11T15:02:16.016Z,27.50
2022-10-11T15:07:21.388Z,26.90
2022-10-11T15:12:25.064Z,26.40
2022-10-11T15:17:28.857Z,26.20
2022-10-11T15:22:33.900Z,25.80
2022-10-11T15:27:37.504Z,25.40
2022-10-11T15:32:41.280Z,25.10
2022-10-11T15:43:22.023Z,24.40
2022-10-11T15:48:29.009Z,24.10
2022-10-11T15:53:32.726Z,23.80
2022-10-11T15:58:40.988Z,23.50
2022-10-11T16:03:44.954Z,23.30
2022-10-11T16:08:48.841Z,22.90
2022-10-11T16:13:53.783Z,22.70
2022-10-11T16:18:57.369Z,22.50
2022-10-11T16:24:01.041Z,22.40
2022-10-11T16:29:06.299Z,22.20
2022-10-11T16:34:09.907Z,22.00
2022-10-11T16:39:15.736Z,21.90
2022-10-11T16:44:24.881Z,21.70
2022-10-11T16:49:29.829Z,21.60
2022-10-11T16:54:33.576Z,21.50
2022-10-11T16:59:38.810Z,21.30
2022-10-11T17:04:42.382Z,21.20
2022-10-11T17:09:48.576Z,21.10
2022-10-11T17:14:54.017Z,21.00
2022-10-11T17:19:57.588Z,20.90
2022-10-11T17:25:03.387Z,20.70
2022-10-11T17:30:09.929Z,20.60
2022-10-11T17:35:13.517Z,20.40
2022-10-11T17:40:17.623Z,20.10
2022-10-11T17:45:22.883Z,19.90
2022-10-11T17:50:26.493Z,19.70
2022-10-11T17:55:30.099Z,19.60
2022-10-11T18:00:35.117Z,19.40
2022-10-11T18:05:40.990Z,19.20
2022-10-11T18:10:47.571Z,19.00
2022-10-11T18:15:53.763Z,18.80
2022-10-11T18:20:57.395Z,18.70
2022-10-11T18:26:02.927Z,18.50
2022-10-11T18:31:13.036Z,18.40
2022-10-11T18:36:18.466Z,18.20
2022-10-11T18:41:22.559Z,18.10
2022-10-11T18:46:28.249Z,18.00
2022-10-11T18:51:33.486Z,17.90
2022-10-11T18:56:37.569Z,17.70
2022-10-11T19:01:44.539Z,17.60
2022-10-11T19:06:49.677Z,17.50
2022-10-11T19:11:55.577Z,17.40
2022-10-11T19:17:01.108Z,17.30
2022-10-11T19:22:04.758Z,17.10
2022-10-11T19:27:08.378Z,17.10
2022-10-11T19:32:13.602Z,16.90
2022-10-11T19:37:17.251Z,16.90
2022-10-11T19:42:20.918Z,16.70
2022-10-11T19:47:26.107Z,16.70
2022-10-11T19:52:29.987Z,16.50
2022-10-11T19:57:34.493Z,16.40
2022-10-11T20:02:39.525Z,16.40
2022-10-11T20:07:43.184Z,16.30
2022-10-11T20:12:46.808Z,16.30
2022-10-11T20:17:51.779Z,16.20
2022-10-11T20:22:55.636Z,16.10
2022-10-11T20:27:59.222Z,16.00
2022-10-11T20:33:04.523Z,15.90
2022-10-11T20:38:08.115Z,15.80
2022-10-11T20:43:11.693Z,15.80
2022-10-11T20:48:16.656Z,15.70
2022-10-11T20:53:20.260Z,15.60
2022-10-11T20:58:24.458Z,15.60
2022-10-11T21:03:29.445Z,15.50
2022-10-11T21:08:33.497Z,15.40
2022-10-11T21:13:37.590Z,15.40
2022-10-11T21:18:42.975Z,15.30
2022-10-11T21:23:46.541Z,15.20
2022-10-11T21:28:50.204Z,15.10
2022-10-11T21:33:55.280Z,15.10
2022-10-11T21:38:58.884Z,15.00
2022-10-11T21:44:02.576Z,15.00
2022-10-11T21:49:07.533Z,14.90
2022-10-11T21:54:11.182Z,14.80
2022-10-11T21:59:15.013Z,14.80
2022-10-11T22:04:20.058Z,14.70
2022-10-11T22:09:23.848Z,14.60
2022-10-11T22:14:27.911Z,14.60
2022-10-11T22:19:32.856Z,14.50
2022-10-11T22:24:36.441Z,14.50
2022-10-11T22:29:40.172Z,14.50
